Time;durP1;ratioP1;P1;durP2;ratioP2;P2;SDS_P1;SDS_P2;PMS_P1;PMS_P2;Temp;Humidity;BMP_temperature;BMP_pressure;BME280_temperature;BME280_humidity;BME280_pressure;Samples;Min_cycle;Max_cycle;Signal;HPM_P1;HPM_P2
2021/04/08 00:01:14;;;;;;;;;;;;;;;26.86;26.73;100685.13;5115441;28;966;-34
2021/04/08 00:03:39;;;;;;;;;;;;;;;26.52;27.12;100686.44;5096641;28;794;-48
2021/04/08 00:06:04;;;;;;;;;;;;;;;26.77;27.21;100678.97;5096803;28;763;-34
2021/04/08 00:08:30;;;;;;;;;;;;;;;26.87;27.14;100686.81;5096138;28;810;-33
2021/04/08 00:10:55;;;;;;;;;;;;;;;27.17;26.64;100687.91;5078356;28;1245;-35
2021/04/08 00:13:20;;;;;;;;;;;;;;;27.20;26.44;100677.56;5096657;28;938;-35
2021/04/08 00:15:46;;;;;;;;;;;;;;;26.97;26.66;100664.97;5096424;28;1952;-32
2021/04/08 00:18:11;;;;;;;;;;;;;;;26.57;27.52;100648.13;5096416;28;938;-34
2021/04/08 00:20:36;;;;;;;;;;;;;;;26.49;27.73;100668.72;5097009;28;751;-47
2021/04/08 00:23:02;;;;;;;;;;;;;;;26.73;27.20;100687.59;5096075;28;735;-34
2021/04/08 00:25:27;;;;;;;;;;;;;;;26.85;27.05;100688.84;5096678;28;771;-48
2021/04/08 00:27:52;;;;;;;;;;;;;;;27.13;26.79;100673.94;5096418;28;799;-34
2021/04/08 00:30:18;;;;;;;;;;;;;;;26.98;27.07;100671.19;5095765;28;803;-43
2021/04/08 00:32:43;;;;;;;;;;;;;;;26.98;26.86;100669.31;5091279;28;1135;-34
2021/04/08 00:35:09;;;;;;;;;;;;;;;26.96;26.64;100682.16;5116766;28;1893;-54
2021/04/08 00:37:34;;;;;;;;;;;;;;;26.53;27.47;100680.84;5116276;28;775;-48
2021/04/08 00:39:59;;;;;;;;;;;;;;;26.55;27.54;100669.88;5098404;28;815;-55
2021/04/08 00:42:24;;;;;;;;;;;;;;;26.86;27.10;100657.31;5116854;28;779;-56
2021/04/08 00:44:50;;;;;;;;;;;;;;;27.07;26.89;100656.63;5098107;28;871;-58
2021/04/08 00:47:15;;;;;;;;;;;;;;;27.20;26.71;100647.03;5106284;28;1245;-45
2021/04/08 00:49:41;;;;;;;;;;;;;;;27.05;26.95;100657.81;5095914;28;835;-33
2021/04/08 00:52:06;;;;;;;;;;;;;;;27.10;26.95;100680.53;5095794;28;821;-33
2021/04/08 00:54:31;;;;;;;;;;;;;;;26.60;27.29;100667.47;5082288;28;1909;-45
2021/04/08 00:56:56;;;;;;;;;;;;;;;26.43;27.86;100665.91;5082097;28;807;-32
2021/04/08 00:59:22;;;;;;;;;;;;;;;26.75;27.41;100682.88;5081243;28;866;-41
2021/04/08 01:01:47;;;;;;;;;;;;;;;26.89;27.23;100671.25;5087560;28;1025;-49
2021/04/08 01:04:12;;;;;;;;;;;;;;;26.92;27.19;100674.63;5102137;28;842;-33
2021/04/08 01:06:38;;;;;;;;;;;;;;;26.97;27.16;100685.69;5120170;28;975;-33
2021/04/08 01:09:06;;;;;;;;;;;;;;;26.76;27.47;100693.47;5120406;28;783;-34
2021/04/08 01:11:31;;;;;;;;;;;;;;;26.80;27.35;100702.06;5120186;28;762;-47
2021/04/08 01:13:56;;;;;;;;;;;;;;;26.52;27.53;100708.00;5120293;28;779;-53
2021/04/08 01:16:43;;;;;;;;;;;;;;;26.65;27.73;100712.78;5118108;28;1901;-42
2021/04/08 01:19:27;;;;;;;;;;;;;;;27.02;27.09;100710.31;5099494;28;847;-47
2021/04/08 01:22:05;;;;;;;;;;;;;;;27.16;27.05;100708.66;5099582;28;763;-36
2021/04/08 01:24:36;;;;;;;;;;;;;;;27.10;26.82;100712.09;5099380;28;684;-55
2021/04/08 01:27:04;;;;;;;;;;;;;;;26.96;26.29;100714.56;5099643;28;739;-49
2021/04/08 01:29:42;;;;;;;;;;;;;;;25.84;26.42;100701.28;5099289;28;866;-48
2021/04/08 01:32:07;;;;;;;;;;;;;;;25.36;27.31;100701.28;5107778;28;947;-35
2021/04/08 01:34:32;;;;;;;;;;;;;;;25.60;27.25;100696.81;5101706;28;1901;-33
2021/04/08 01:36:59;;;;;;;;;;;;;;;25.56;26.99;100699.84;5101387;28;790;-50
2021/04/08 01:39:24;;;;;;;;;;;;;;;25.40;27.16;100698.06;5100855;28;982;-48
2021/04/08 01:41:49;;;;;;;;;;;;;;;25.67;27.38;100701.34;5119775;28;938;-33
2021/04/08 01:44:16;;;;;;;;;;;;;;;25.46;27.38;100701.09;5101501;28;759;-48
2021/04/08 01:46:41;;;;;;;;;;;;;;;25.70;27.48;100702.03;5095994;28;1084;-33
2021/04/08 01:49:07;;;;;;;;;;;;;;;26.23;26.75;100699.56;5080688;28;1121;-33
2021/04/08 01:51:32;;;;;;;;;;;;;;;26.43;26.66;100709.06;5080531;28;862;-41
2021/04/08 01:53:58;;;;;;;;;;;;;;;26.71;26.26;100709.38;5098985;28;830;-32
2021/04/08 01:56:23;;;;;;;;;;;;;;;26.78;26.20;100710.31;5098825;28;1969;-34
2021/04/08 01:58:49;;;;;;;;;;;;;;;26.29;26.96;100715.03;5080466;28;967;-48
2021/04/08 02:01:17;;;;;;;;;;;;;;;26.34;27.05;100706.44;5099544;28;1017;-34
2021/04/08 02:03:42;;;;;;;;;;;;;;;26.49;26.62;100714.59;5118729;28;755;-43
2021/04/08 02:06:08;;;;;;;;;;;;;;;26.67;26.82;100708.06;5118469;28;854;-48
2021/04/08 02:08:34;;;;;;;;;;;;;;;26.45;26.90;100699.78;5119078;28;889;-34
2021/04/08 02:10:59;;;;;;;;;;;;;;;26.52;26.78;100700.75;5100839;28;806;-34
2021/04/08 02:13:25;;;;;;;;;;;;;;;26.89;26.15;100714.44;5100680;28;818;-34
2021/04/08 02:15:50;;;;;;;;;;;;;;;26.37;27.06;100716.88;5100544;28;1913;-47
2021/04/08 02:18:16;;;;;;;;;;;;;;;26.53;26.76;100726.72;5082576;28;946;-34
2021/04/08 02:20:41;;;;;;;;;;;;;;;26.68;26.84;100717.81;5078878;28;848;-51
2021/04/08 02:23:06;;;;;;;;;;;;;;;26.75;26.46;100728.75;5098475;28;819;-49
2021/04/08 02:25:33;;;;;;;;;;;;;;;26.93;26.34;100732.97;5098271;28;912;-51
2021/04/08 02:28:04;;;;;;;;;;;;;;;26.98;26.46;100730.56;5097985;28;764;-48
2021/04/08 02:30:29;;;;;;;;;;;;;;;26.95;26.27;100728.22;5098553;28;771;-51
2021/04/08 02:32:54;;;;;;;;;;;;;;;26.75;26.58;100732.28;5095334;28;994;-33
2021/04/08 02:35:20;;;;;;;;;;;;;;;26.36;27.11;100742.16;5099259;28;1893;-47
2021/04/08 02:37:45;;;;;;;;;;;;;;;26.73;26.92;100755.06;5118756;28;755;-34
2021/04/08 02:40:12;;;;;;;;;;;;;;;26.80;26.70;100745.22;5118609;28;834;-34
2021/04/08 02:42:37;;;;;;;;;;;;;;;27.19;25.97;100737.16;5118238;28;806;-49
2021/04/08 02:45:03;;;;;;;;;;;;;;;27.22;26.02;100731.41;5118321;28;1243;-44
2021/04/08 02:47:28;;;;;;;;;;;;;;;27.09;26.41;100727.44;5106872;28;1021;-48
2021/04/08 02:49:54;;;;;;;;;;;;;;;26.82;26.54;100727.00;5097467;28;886;-33
2021/04/08 02:52:20;;;;;;;;;;;;;;;26.52;26.97;100716.09;5098042;28;787;-42
2021/04/08 02:54:48;;;;;;;;;;;;;;;26.44;27.28;100713.47;5097901;28;1917;-33
2021/04/08 02:57:15;;;;;;;;;;;;;;;26.71;26.82;100712.06;5098012;28;802;-35
2021/04/08 02:59:53;;;;;;;;;;;;;;;26.99;26.67;100722.28;5097916;28;877;-45
2021/04/08 03:02:19;;;;;;;;;;;;;;;27.06;26.40;100733.22;5107345;28;1022;-42
2021/04/08 03:04:48;;;;;;;;;;;;;;;26.81;26.91;100733.41;5117392;28;819;-33
2021/04/08 03:07:14;;;;;;;;;;;;;;;27.02;26.51;100738.16;5118118;28;830;-34
2021/04/08 03:09:40;;;;;;;;;;;;;;;26.90;26.56;100729.63;5117560;28;759;-36
2021/04/08 03:12:06;;;;;;;;;;;;;;;26.60;26.92;100729.53;5117433;28;853;-35
2021/04/08 03:14:32;;;;;;;;;;;;;;;26.93;26.81;100730.25;5118262;28;1959;-40
2021/04/08 03:16:58;;;;;;;;;;;;;;;27.06;26.57;100738.63;5091593;28;957;-49
2021/04/08 03:19:26;;;;;;;;;;;;;;;26.78;26.81;100748.13;5079005;28;779;-37
2021/04/08 03:21:51;;;;;;;;;;;;;;;26.36;27.48;100760.22;5097443;28;963;-46
2021/04/08 03:24:17;;;;;;;;;;;;;;;26.37;27.54;100765.44;5079106;28;766;-50
2021/04/08 03:26:42;;;;;;;;;;;;;;;26.71;27.09;100763.34;5079398;28;803;-31
2021/04/08 03:29:08;;;;;;;;;;;;;;;26.80;26.94;100779.47;5097079;28;826;-51
2021/04/08 03:31:33;;;;;;;;;;;;;;;27.03;26.67;100771.38;5082631;28;963;-33
2021/04/08 03:33:58;;;;;;;;;;;;;;;26.85;26.69;100777.06;5117333;28;834;-50
2021/04/08 03:36:24;;;;;;;;;;;;;;;26.50;25.99;100778.31;5098760;28;1901;-32
2021/04/08 03:38:49;;;;;;;;;;;;;;;26.69;25.58;100772.63;5117441;28;802;-32
2021/04/08 03:41:14;;;;;;;;;;;;;;;26.15;26.23;100773.25;5099130;28;857;-32
2021/04/08 03:43:40;;;;;;;;;;;;;;;24.79;22.05;100769.22;5098799;28;763;-41
2021/04/08 03:46:05;;;;;;;;;;;;;;;23.83;21.39;100770.28;5116977;28;1212;-40
2021/04/08 03:48:31;;;;;;;;;;;;;;;24.09;21.08;100764.00;5096876;28;965;-41
2021/04/08 03:50:56;;;;;;;;;;;;;;;23.72;21.56;100763.34;5078393;28;763;-40
2021/04/08 03:53:22;;;;;;;;;;;;;;;23.15;21.66;100767.31;5096971;28;1022;-42
2021/04/08 03:55:47;;;;;;;;;;;;;;;23.59;21.90;100765.59;5078391;28;1982;-38
2021/04/08 03:58:13;;;;;;;;;;;;;;;24.93;23.94;100769.63;5095902;28;811;-36
2021/04/08 04:00:38;;;;;;;;;;;;;;;25.46;24.76;100750.38;5096879;28;791;-43
2021/04/08 04:03:04;;;;;;;;;;;;;;;25.67;24.23;100757.94;5113631;28;1013;-35
2021/04/08 04:05:29;;;;;;;;;;;;;;;25.82;24.24;100754.53;5116625;28;794;-34
2021/04/08 04:07:55;;;;;;;;;;;;;;;26.28;23.85;100770.00;5117057;28;819;-37
2021/04/08 04:10:21;;;;;;;;;;;;;;;26.54;23.91;100797.69;5117059;28;768;-34
2021/04/08 04:12:50;;;;;;;;;;;;;;;26.61;23.88;100809.44;5116528;28;803;-37
2021/04/08 04:15:15;;;;;;;;;;;;;;;26.96;23.54;100825.22;5105159;28;1914;-40
2021/04/08 04:17:41;;;;;;;;;;;;;;;27.07;23.57;100840.22;5087094;28;1205;-40
2021/04/08 04:20:06;;;;;;;;;;;;;;;27.47;23.08;100853.56;5102841;28;975;-40
2021/04/08 04:22:32;;;;;;;;;;;;;;;27.70;23.08;100859.94;5106442;28;1221;-38
2021/04/08 04:24:57;;;;;;;;;;;;;;;27.89;22.54;100868.53;5115171;28;1233;-46
2021/04/08 04:27:23;;;;;;;;;;;;;;;28.04;22.20;100887.47;5117075;28;866;-34
2021/04/08 04:29:48;;;;;;;;;;;;;;;28.09;22.31;100874.25;5121043;28;814;-43
2021/04/08 04:32:13;;;;;;;;;;;;;;;28.10;22.75;100875.91;5111432;28;958;-34
2021/04/08 04:34:45;;;;;;;;;;;;;;;28.35;22.61;100870.22;5100025;28;1898;-33
2021/04/08 04:37:11;;;;;;;;;;;;;;;28.09;22.79;100876.94;5100837;28;735;-37
2021/04/08 04:39:36;;;;;;;;;;;;;;;28.15;22.70;100872.63;5100185;28;770;-42
2021/04/08 04:42:02;;;;;;;;;;;;;;;28.06;23.03;100878.13;5099839;28;894;-44
2021/04/08 04:44:27;;;;;;;;;;;;;;;28.41;22.41;100885.69;5100134;28;795;-34
2021/04/08 04:46:52;;;;;;;;;;;;;;;28.73;22.11;100886.31;5106327;28;1230;-33
2021/04/08 04:49:18;;;;;;;;;;;;;;;28.78;22.07;100890.31;5101904;28;871;-33
2021/04/08 04:51:43;;;;;;;;;;;;;;;28.97;21.91;100894.28;5120708;28;754;-34
2021/04/08 04:54:08;;;;;;;;;;;;;;;29.07;21.95;100893.97;5120395;28;816;-33
2021/04/08 04:56:33;;;;;;;;;;;;;;;28.62;22.01;100900.34;5120275;28;1919;-34
2021/04/08 04:58:59;;;;;;;;;;;;;;;28.07;22.38;100900.63;5121055;28;778;-33
2021/04/08 05:01:24;;;;;;;;;;;;;;;27.79;23.10;100912.91;5120001;28;949;-34
2021/04/08 05:03:49;;;;;;;;;;;;;;;28.46;22.71;100914.94;5101978;28;794;-34
2021/04/08 05:06:14;;;;;;;;;;;;;;;28.87;22.57;100912.69;5120319;28;786;-33
2021/04/08 05:08:40;;;;;;;;;;;;;;;29.02;21.96;100912.66;5120047;28;711;-46
2021/04/08 05:11:05;;;;;;;;;;;;;;;28.94;22.16;100922.59;5119898;28;1016;-33
2021/04/08 05:13:31;;;;;;;;;;;;;;;28.64;22.74;100919.94;5101502;28;1253;-33
2021/04/08 05:15:56;;;;;;;;;;;;;;;28.95;22.47;100917.97;5120029;28;1910;-42
2021/04/08 05:18:21;;;;;;;;;;;;;;;29.20;22.22;100914.94;5119369;28;1116;-38
2021/04/08 05:20:47;;;;;;;;;;;;;;;29.45;21.50;100911.81;5119522;28;1074;-34
2021/04/08 05:23:12;;;;;;;;;;;;;;;29.36;21.89;100908.44;5119858;28;890;-34
2021/04/08 05:25:37;;;;;;;;;;;;;;;29.06;22.54;100917.50;5119720;28;782;-35
2021/04/08 05:28:03;;;;;;;;;;;;;;;29.27;22.32;100917.72;5119843;28;717;-33
2021/04/08 05:30:28;;;;;;;;;;;;;;;29.41;22.21;100924.91;5119904;28;783;-33
2021/04/08 05:32:53;;;;;;;;;;;;;;;29.54;21.92;100926.09;5118939;28;1008;-33
2021/04/08 05:35:19;;;;;;;;;;;;;;;29.66;21.85;100929.16;5119408;28;1905;-33
2021/04/08 05:37:44;;;;;;;;;;;;;;;29.67;21.92;100939.78;5119677;28;818;-33
2021/04/08 05:40:10;;;;;;;;;;;;;;;29.74;21.64;100936.28;5119074;28;903;-36
2021/04/08 05:42:35;;;;;;;;;;;;;;;29.55;21.84;100947.56;5119457;28;831;-34
2021/04/08 05:45:00;;;;;;;;;;;;;;;29.34;22.14;100946.53;5120053;28;818;-37
2021/04/08 05:47:25;;;;;;;;;;;;;;;29.58;22.18;100946.34;5118427;28;1471;-42
2021/04/08 05:49:51;;;;;;;;;;;;;;;29.80;22.07;100949.91;5119329;28;778;-42
2021/04/08 05:52:17;;;;;;;;;;;;;;;30.02;21.60;100946.28;5119564;28;747;-37
2021/04/08 05:54:44;;;;;;;;;;;;;;;29.71;21.50;100940.25;5119388;28;1985;-35
2021/04/08 05:57:09;;;;;;;;;;;;;;;29.42;22.58;100948.28;5119175;28;1013;-41
2021/04/08 05:59:34;;;;;;;;;;;;;;;29.76;22.21;100956.72;5119132;28;870;-39
2021/04/08 06:02:00;;;;;;;;;;;;;;;29.82;22.09;100960.53;5111766;28;1230;-40
2021/04/08 06:04:25;;;;;;;;;;;;;;;29.87;22.18;100973.50;5098896;28;836;-40
2021/04/08 06:06:51;;;;;;;;;;;;;;;29.94;21.94;100974.41;5099263;28;781;-43
2021/04/08 06:09:16;;;;;;;;;;;;;;;30.00;22.03;100973.63;5098887;28;719;-41
2021/04/08 06:11:41;;;;;;;;;;;;;;;30.13;21.55;100974.75;5098258;28;835;-40
2021/04/08 06:14:07;;;;;;;;;;;;;;;29.95;21.63;100992.34;5099046;28;822;-42
2021/04/08 06:16:32;;;;;;;;;;;;;;;29.80;22.14;101001.41;5102036;28;1905;-43
2021/04/08 06:18:57;;;;;;;;;;;;;;;30.03;21.99;100999.53;5118790;28;833;-35
2021/04/08 06:21:22;;;;;;;;;;;;;;;30.10;21.77;101010.41;5119328;28;839;-34
2021/04/08 06:23:48;;;;;;;;;;;;;;;30.19;21.67;101015.50;5119281;28;802;-35
2021/04/08 06:26:13;;;;;;;;;;;;;;;30.27;21.28;101022.69;5100030;28;1186;-35
2021/04/08 06:28:38;;;;;;;;;;;;;;;30.16;21.33;101017.75;5119408;28;775;-35
2021/04/08 06:31:03;;;;;;;;;;;;;;;30.01;21.79;101015.97;5119018;28;830;-35
2021/04/08 06:33:29;;;;;;;;;;;;;;;30.02;21.29;101024.94;5097830;28;1036;-35
2021/04/08 06:35:54;;;;;;;;;;;;;;;29.92;20.80;101018.00;5098472;28;1982;-35
2021/04/08 06:38:20;;;;;;;;;;;;;;;29.68;20.88;101025.50;5098647;28;801;-35
2021/04/08 06:40:45;;;;;;;;;;;;;;;29.63;21.15;101029.84;5098101;28;889;-35
2021/04/08 06:43:11;;;;;;;;;;;;;;;29.74;21.41;101025.75;5108524;28;1047;-46
2021/04/08 06:45:36;;;;;;;;;;;;;;;29.86;21.20;101026.06;5115272;28;1117;-34
2021/04/08 06:48:10;;;;;;;;;;;;;;;29.03;21.93;101025.41;5112554;28;1263;-35
2021/04/08 06:50:37;;;;;;;;;;;;;;;29.20;21.90;101026.00;5116880;28;1201;-46
2021/04/08 06:53:03;;;;;;;;;;;;;;;29.60;21.92;101039.19;5093762;28;1030;-35
2021/04/08 06:55:28;;;;;;;;;;;;;;;29.76;21.43;101031.84;5105973;28;1969;-45
2021/04/08 06:57:53;;;;;;;;;;;;;;;29.96;21.18;101040.16;5098416;28;798;-35
2021/04/08 07:00:19;;;;;;;;;;;;;;;30.01;21.49;101039.56;5099624;28;1019;-34
2021/04/08 07:02:44;;;;;;;;;;;;;;;30.19;21.08;101045.34;5105433;28;1017;-34
2021/04/08 07:05:10;;;;;;;;;;;;;;;30.23;20.93;101051.22;5098060;28;775;-32
2021/04/08 07:07:35;;;;;;;;;;;;;;;30.01;21.34;101051.22;5097701;28;732;-33
2021/04/08 07:10:00;;;;;;;;;;;;;;;30.00;21.52;101048.72;5097626;28;737;-34
2021/04/08 07:12:26;;;;;;;;;;;;;;;30.08;21.59;101056.72;5097757;28;863;-35
2021/04/08 07:14:52;;;;;;;;;;;;;;;30.21;21.44;101058.75;5079265;28;1905;-35
2021/04/08 07:17:17;;;;;;;;;;;;;;;30.36;21.15;101066.78;5089147;28;955;-33
2021/04/08 07:19:43;;;;;;;;;;;;;;;30.27;20.77;101065.25;5117894;28;814;-37
2021/04/08 07:22:08;;;;;;;;;;;;;;;29.82;20.55;101074.44;5117967;28;893;-38
2021/04/08 07:24:40;;;;;;;;;;;;;;;29.43;20.71;101073.78;5118473;28;726;-37
2021/04/08 07:27:07;;;;;;;;;;;;;;;29.42;20.93;101075.66;5117776;28;783;-38
2021/04/08 07:29:38;;;;;;;;;;;;;;;29.27;21.07;101073.00;5100159;28;832;-48
2021/04/08 07:32:03;;;;;;;;;;;;;;;29.34;21.22;101073.06;5109194;28;962;-38
2021/04/08 07:34:35;;;;;;;;;;;;;;;29.28;21.01;101071.13;5097330;28;834;-37
2021/04/08 07:37:00;;;;;;;;;;;;;;;28.94;21.35;101070.66;5097465;28;823;-38
2021/04/08 07:39:26;;;;;;;;;;;;;;;28.92;21.54;101070.84;5096726;28;835;-38
2021/04/08 07:41:58;;;;;;;;;;;;;;;29.19;21.32;101070.38;5097270;28;735;-37
2021/04/08 07:44:23;;;;;;;;;;;;;;;28.36;21.51;101072.97;5097306;28;514;-38
2021/04/08 07:46:49;;;;;;;;;;;;;;;27.57;22.50;101065.91;5102532;28;1099;-37
2021/04/08 07:49:23;;;;;;;;;;;;;;;26.65;23.97;101069.81;5117125;28;843;-37
2021/04/08 07:51:48;;;;;;;;;;;;;;;26.25;24.55;101072.38;5117594;28;811;-37
2021/04/08 07:54:15;;;;;;;;;;;;;;;27.80;22.79;101084.88;5117041;28;795;-33
2021/04/08 07:56:41;;;;;;;;;;;;;;;28.54;21.75;101081.75;5117366;28;1946;-38
2021/04/08 07:59:22;;;;;;;;;;;;;;;28.57;21.45;101086.81;5117425;28;795;-36
2021/04/08 08:01:49;;;;;;;;;;;;;;;28.73;21.71;101080.38;5110040;28;1025;-35
2021/04/08 08:04:18;;;;;;;;;;;;;;;28.89;21.56;101081.22;5096819;28;825;-38
2021/04/08 08:06:43;;;;;;;;;;;;;;;29.00;21.30;101086.19;5096682;28;1436;-36
2021/04/08 08:09:08;;;;;;;;;;;;;;;29.06;21.11;101093.56;5096380;28;779;-36
2021/04/08 08:11:40;;;;;;;;;;;;;;;28.64;21.49;101098.59;5096883;28;751;-36
2021/04/08 08:14:05;;;;;;;;;;;;;;;28.02;22.45;101098.59;5097055;28;752;-38
2021/04/08 08:16:31;;;;;;;;;;;;;;;28.58;21.87;101102.00;5099476;28;1902;-49
2021/04/08 08:18:57;;;;;;;;;;;;;;;28.92;21.56;101106.06;5117044;28;821;-33
2021/04/08 08:21:29;;;;;;;;;;;;;;;29.19;21.35;101109.16;5117034;28;737;-34
2021/04/08 08:23:55;;;;;;;;;;;;;;;29.11;21.35;101116.53;5117046;28;800;-34
2021/04/08 08:26:24;;;;;;;;;;;;;;;29.40;21.05;101118.38;5099388;28;803;-46
2021/04/08 08:28:49;;;;;;;;;;;;;;;29.46;20.97;101125.72;5116632;28;806;-34
2021/04/08 08:31:33;;;;;;;;;;;;;;;29.52;21.09;101128.72;5115442;28;950;-33
2021/04/08 08:33:58;;;;;;;;;;;;;;;29.13;21.29;101125.34;5096800;28;763;-34
2021/04/08 08:36:23;;;;;;;;;;;;;;;29.15;21.55;101124.09;5096080;28;1906;-35
2021/04/08 08:38:49;;;;;;;;;;;;;;;29.39;21.39;101126.69;5078138;28;820;-43
2021/04/08 08:41:14;;;;;;;;;;;;;;;29.72;21.00;101130.84;5112898;28;868;-34
2021/04/08 08:43:40;;;;;;;;;;;;;;;29.67;21.22;101128.72;5116687;28;802;-55
2021/04/08 08:46:05;;;;;;;;;;;;;;;29.61;21.28;101130.34;5116434;28;1072;-33
2021/04/08 08:48:30;;;;;;;;;;;;;;;29.77;21.16;101122.97;5096307;28;958;-34
2021/04/08 08:50:55;;;;;;;;;;;;;;;30.03;20.95;101122.41;5096467;28;814;-33
2021/04/08 08:53:21;;;;;;;;;;;;;;;29.97;20.91;101116.91;5096225;28;802;-33
2021/04/08 08:55:46;;;;;;;;;;;;;;;29.92;21.50;101109.38;5078403;28;1909;-34
2021/04/08 08:58:11;;;;;;;;;;;;;;;30.02;21.13;101109.88;5078278;28;751;-34
2021/04/08 09:00:37;;;;;;;;;;;;;;;30.17;21.03;101109.81;5077715;28;807;-46
2021/04/08 09:03:03;;;;;;;;;;;;;;;30.31;20.84;101116.22;5093918;28;998;-35
2021/04/08 09:05:29;;;;;;;;;;;;;;;30.04;21.13;101107.81;5116760;28;775;-39
2021/04/08 09:07:56;;;;;;;;;;;;;;;29.96;21.19;101107.13;5091099;28;1574;-34
2021/04/08 09:10:33;;;;;;;;;;;;;;;29.89;19.81;101107.03;5098344;28;879;-51
2021/04/08 09:12:59;;;;;;;;;;;;;;;29.99;20.35;101094.00;5099440;28;829;-33
2021/04/08 09:15:24;;;;;;;;;;;;;;;29.58;20.27;101098.97;5119551;28;1979;-43
2021/04/08 09:17:59;;;;;;;;;;;;;;;29.77;20.67;101094.00;5086972;28;1021;-42
2021/04/08 09:20:24;;;;;;;;;;;;;;;30.16;20.07;101102.69;5100101;28;775;-35
2021/04/08 09:22:50;;;;;;;;;;;;;;;29.98;20.38;101103.16;5099658;28;783;-43
2021/04/08 09:25:16;;;;;;;;;;;;;;;30.02;20.79;101101.75;5099711;28;734;-33
2021/04/08 09:27:51;;;;;;;;;;;;;;;30.27;20.17;101097.81;5099854;28;925;-44
2021/04/08 09:30:43;;;;;;;;;;;;;;;30.43;20.10;101096.66;5099533;28;760;-33
2021/04/08 09:33:09;;;;;;;;;;;;;;;30.08;20.80;101096.59;5116707;28;967;-40
2021/04/08 09:35:34;;;;;;;;;;;;;;;30.05;21.04;101098.66;5119752;28;1909;-36
2021/04/08 09:38:00;;;;;;;;;;;;;;;30.05;20.80;101097.78;5119952;28;739;-47
2021/04/08 09:40:30;;;;;;;;;;;;;;;30.37;20.50;101105.59;5119908;28;882;-33
2021/04/08 09:43:00;;;;;;;;;;;;;;;30.55;20.40;101105.97;5119942;28;817;-44
2021/04/08 09:45:25;;;;;;;;;;;;;;;30.36;20.51;101114.78;5119568;28;1050;-34
2021/04/08 09:48:06;;;;;;;;;;;;;;;30.27;20.74;101105.94;5104582;28;969;-50
2021/04/08 09:50:50;;;;;;;;;;;;;;;30.55;20.32;101111.38;5099501;28;818;-53
2021/04/08 09:53:16;;;;;;;;;;;;;;;30.48;20.26;101123.25;5098966;28;775;-35
2021/04/08 09:55:42;;;;;;;;;;;;;;;29.97;21.36;101114.19;5098907;28;1913;-53
2021/04/08 09:58:07;;;;;;;;;;;;;;;30.23;21.07;101112.81;5099215;28;736;-34
2021/04/08 10:00:32;;;;;;;;;;;;;;;30.27;21.06;101105.94;5098489;28;827;-34
2021/04/08 10:02:58;;;;;;;;;;;;;;;30.54;20.77;101114.31;5115000;28;950;-49
2021/04/08 10:05:25;;;;;;;;;;;;;;;29.85;20.27;101111.16;5119324;28;821;-34
2021/04/08 10:07:54;;;;;;;;;;;;;;;29.96;20.46;101112.53;5100613;28;1270;-53
2021/04/08 10:10:20;;;;;;;;;;;;;;;30.14;20.72;101125.63;5119869;28;735;-51
2021/04/08 10:12:46;;;;;;;;;;;;;;;30.38;20.50;101121.69;5119481;28;826;-48
2021/04/08 10:15:14;;;;;;;;;;;;;;;30.48;20.25;101115.91;5118726;28;1955;-54
2021/04/08 10:17:39;;;;;;;;;;;;;;;30.18;20.92;101114.19;5105943;28;938;-50
2021/04/08 10:20:05;;;;;;;;;;;;;;;30.24;20.73;101120.75;5080492;28;1275;-44
2021/04/08 10:22:37;;;;;;;;;;;;;;;30.37;20.93;101119.19;5098593;28;728;-48
2021/04/08 10:25:03;;;;;;;;;;;;;;;30.64;20.19;101116.66;5097898;28;823;-37
2021/04/08 10:27:28;;;;;;;;;;;;;;;30.56;20.43;101125.81;5098848;28;743;-34
2021/04/08 10:29:54;;;;;;;;;;;;;;;30.40;20.70;101124.22;5097966;28;819;-34
2021/04/08 10:32:29;;;;;;;;;;;;;;;30.56;20.58;101131.25;5108360;28;1013;-44
2021/04/08 10:34:54;;;;;;;;;;;;;;;30.64;20.31;101125.66;5118567;28;1964;-34
2021/04/08 10:37:19;;;;;;;;;;;;;;;29.72;20.42;101128.97;5118417;28;901;-50
2021/04/08 10:39:44;;;;;;;;;;;;;;;29.77;20.78;101126.53;5118929;28;803;-43
2021/04/08 10:42:11;;;;;;;;;;;;;;;29.94;20.77;101129.00;5118770;28;857;-46
2021/04/08 10:44:36;;;;;;;;;;;;;;;30.15;20.41;101120.00;5118738;28;755;-45
2021/04/08 10:47:01;;;;;;;;;;;;;;;30.51;19.91;101131.00;5110342;28;1292;-48
2021/04/08 10:49:30;;;;;;;;;;;;;;;30.22;20.37;101130.13;5097689;28;827;-33
2021/04/08 10:51:56;;;;;;;;;;;;;;;30.37;20.20;101125.44;5097986;28;739;-38
2021/04/08 10:54:28;;;;;;;;;;;;;;;30.60;19.99;101124.38;5098331;28;775;-49
2021/04/08 10:56:53;;;;;;;;;;;;;;;30.52;20.06;101121.78;5098166;28;1914;-35
2021/04/08 10:59:19;;;;;;;;;;;;;;;30.19;20.26;101121.31;5097749;28;1016;-35
2021/04/08 11:01:44;;;;;;;;;;;;;;;30.05;20.16;101114.06;5103371;28;1033;-35
2021/04/08 11:04:10;;;;;;;;;;;;;;;30.00;20.08;101114.66;5118296;28;796;-62
2021/04/08 11:06:35;;;;;;;;;;;;;;;29.82;20.04;101109.69;5117789;28;878;-61
2021/04/08 11:09:00;;;;;;;;;;;;;;;29.84;19.94;101117.63;5117958;28;819;-61
2021/04/08 11:11:25;;;;;;;;;;;;;;;29.88;19.69;101113.50;5118027;28;809;-44
2021/04/08 11:13:51;;;;;;;;;;;;;;;29.25;20.38;101115.69;5117551;28;1445;-62
2021/04/08 11:16:16;;;;;;;;;;;;;;;29.13;20.74;101119.91;5116488;28;1968;-34
2021/04/08 11:18:41;;;;;;;;;;;;;;;29.91;19.94;101118.53;5097700;28;882;-34
2021/04/08 11:21:06;;;;;;;;;;;;;;;29.90;19.84;101120.41;5097314;28;759;-33
2021/04/08 11:23:32;;;;;;;;;;;;;;;29.42;20.29;101124.44;5079200;28;831;-54
2021/04/08 11:26:04;;;;;;;;;;;;;;;29.29;20.81;101127.84;5097450;28;813;-43
2021/04/08 11:28:29;;;;;;;;;;;;;;;29.32;20.26;101121.19;5096869;28;803;-45
2021/04/08 11:30:55;;;;;;;;;;;;;;;28.92;20.96;101126.88;5079403;28;779;-34
2021/04/08 11:33:21;;;;;;;;;;;;;;;28.63;21.54;101123.94;5097533;28;959;-48
2021/04/08 11:35:46;;;;;;;;;;;;;;;29.30;20.78;101121.38;5117245;28;1963;-34
2021/04/08 11:38:13;;;;;;;;;;;;;;;29.76;20.44;101121.31;5117313;28;862;-44
2021/04/08 11:40:39;;;;;;;;;;;;;;;30.13;20.03;101118.53;5117489;28;833;-35
2021/04/08 11:43:20;;;;;;;;;;;;;;;30.27;19.55;101123.06;5117697;28;751;-34
2021/04/08 11:45:45;;;;;;;;;;;;;;;29.92;20.30;101122.94;5117127;28;1043;-55
2021/04/08 11:48:10;;;;;;;;;;;;;;;29.76;20.39;101119.41;5100253;28;981;-35
2021/04/08 11:50:42;;;;;;;;;;;;;;;30.00;20.58;101114.66;5096898;28;771;-35
2021/04/08 11:53:10;;;;;;;;;;;;;;;30.26;20.07;101120.56;5096976;28;835;-46
2021/04/08 11:55:36;;;;;;;;;;;;;;;29.94;20.13;101119.00;5097065;28;1914;-34
2021/04/08 11:58:02;;;;;;;;;;;;;;;29.78;20.49;101128.22;5096757;28;898;-54
2021/04/08 12:00:28;;;;;;;;;;;;;;;30.04;20.41;101117.81;5096863;28;893;-54
2021/04/08 12:02:53;;;;;;;;;;;;;;;30.07;20.09;101122.88;5112228;28;1014;-37
2021/04/08 12:05:18;;;;;;;;;;;;;;;28.80;20.88;101113.81;5116983;28;870;-33
2021/04/08 12:07:48;;;;;;;;;;;;;;;29.33;21.01;101120.16;5117345;28;792;-33
2021/04/08 12:10:25;;;;;;;;;;;;;;;29.97;20.07;101116.91;5117284;28;798;-41
2021/04/08 12:12:54;;;;;;;;;;;;;;;29.87;20.09;101122.66;5116389;28;807;-36
2021/04/08 12:15:30;;;;;;;;;;;;;;;29.91;20.26;101115.84;5117524;28;1956;-50
2021/04/08 12:17:55;;;;;;;;;;;;;;;30.23;19.77;101118.25;5116689;28;918;-33
2021/04/08 12:20:20;;;;;;;;;;;;;;;30.39;19.62;101119.81;5116609;28;814;-33
2021/04/08 12:22:46;;;;;;;;;;;;;;;29.77;19.94;101117.56;5117537;28;798;-47
2021/04/08 12:25:12;;;;;;;;;;;;;;;29.54;20.56;101113.97;5117514;28;762;-45
2021/04/08 12:27:37;;;;;;;;;;;;;;;29.80;20.51;101123.44;5116464;28;786;-50
2021/04/08 12:30:04;;;;;;;;;;;;;;;30.10;20.27;101122.47;5117125;28;872;-50
2021/04/08 12:32:29;;;;;;;;;;;;;;;30.42;19.79;101116.72;5098000;28;962;-33
2021/04/08 12:34:55;;;;;;;;;;;;;;;30.50;19.46;101113.00;5116441;28;1905;-35
2021/04/08 12:37:20;;;;;;;;;;;;;;;30.31;20.27;101120.81;5116731;28;870;-44
2021/04/08 12:39:45;;;;;;;;;;;;;;;30.30;20.05;101114.53;5116658;28;830;-51
2021/04/08 12:42:11;;;;;;;;;;;;;;;30.61;19.58;101115.19;5116621;28;747;-49
2021/04/08 12:44:36;;;;;;;;;;;;;;;30.39;19.69;101114.41;5109433;28;827;-34
2021/04/08 12:47:02;;;;;;;;;;;;;;;30.04;20.42;101113.25;5115864;28;1268;-33
2021/04/08 12:49:27;;;;;;;;;;;;;;;30.45;20.20;101120.94;5118841;28;803;-34
2021/04/08 12:51:52;;;;;;;;;;;;;;;30.10;18.74;101127.91;5121123;28;755;-50